Time;durP1;ratioP1;P1;durP2;ratioP2;P2;SDS_P1;SDS_P2;PMS_P1;PMS_P2;Temp;Humidity;BMP_temperature;BMP_pressure;BME280_temperature;BME280_humidity;BME280_pressure;Samples;Min_cycle;Max_cycle;Signal;HPM_P1;HPM_P2
2022/10/13 00:00:46;;;;;;;;;;;;;;;16.14;67.36;101544.06;1256124;23;650;-71
2022/10/13 00:01:37;;;;;;;;;;;;;;;16.14;67.34;101544.06;1256107;23;635;-71
2022/10/13 00:02:27;;;;;;;;;;;;;;;16.14;67.68;101544.06;1256095;23;673;-71
2022/10/13 00:03:17;;;;;;;;;;;;;;;16.12;67.48;101543.31;1256072;23;619;-71
2022/10/13 00:04:08;;;;;;;;;;;;;;;16.12;67.16;101537.94;1255920;23;1100;-71
2022/10/13 00:04:58;;;;;;;;;;;;;;;16.12;67.73;101535.25;1256040;23;650;-71
2022/10/13 00:05:49;;;;;;;;;;;;;;;16.13;67.03;101541.47;1253861;23;674;-71
2022/10/13 00:06:39;;;;;;;;;;;;;;;16.10;67.50;101537.22;1256060;23;646;-71
2022/10/13 00:07:30;;;;;;;;;;;;;;;16.13;67.13;101536.97;1255936;23;669;-72
2022/10/13 00:08:20;;;;;;;;;;;;;;;16.12;67.56;101537.94;1256159;23;693;-71
2022/10/13 00:09:10;;;;;;;;;;;;;;;16.12;67.72;101535.25;1256049;23;681;-72
2022/10/13 00:10:01;;;;;;;;;;;;;;;16.12;67.71;101527.19;1256247;23;654;-72
2022/10/13 00:10:51;;;;;;;;;;;;;;;16.13;67.06;101528.88;1255967;23;622;-71
2022/10/13 00:11:42;;;;;;;;;;;;;;;16.12;67.85;101529.88;1256049;23;641;-71
2022/10/13 00:12:32;;;;;;;;;;;;;;;16.13;67.39;101528.03;1256076;23;681;-72
2022/10/13 00:13:23;;;;;;;;;;;;;;;16.13;67.30;101531.56;1256124;23;708;-71
2022/10/13 00:14:13;;;;;;;;;;;;;;;16.13;67.39;101525.34;1256248;23;665;-71
2022/10/13 00:15:03;;;;;;;;;;;;;;;16.11;67.44;101528.19;1255497;23;630;-71
2022/10/13 00:15:54;;;;;;;;;;;;;;;16.11;67.39;101532.69;1255958;23;613;-72
2022/10/13 00:16:44;;;;;;;;;;;;;;;16.12;67.69;101535.25;1256025;23;642;-70
2022/10/13 00:17:35;;;;;;;;;;;;;;;16.11;66.93;101532.69;1256072;23;646;-71
2022/10/13 00:18:25;;;;;;;;;;;;;;;16.10;67.06;101534.53;1255329;23;634;-71
2022/10/13 00:19:16;;;;;;;;;;;;;;;16.10;67.59;101537.22;1256135;23;674;-71
2022/10/13 00:20:07;;;;;;;;;;;;;;;16.10;67.37;101537.22;1255390;23;689;-71
2022/10/13 00:20:57;;;;;;;;;;;;;;;16.10;67.60;101526.47;1253486;23;579;-72
2022/10/13 00:21:47;;;;;;;;;;;;;;;16.09;67.47;101530.13;1256015;23;638;-70
2022/10/13 00:22:38;;;;;;;;;;;;;;;16.09;67.33;101532.81;1255967;23;662;-71
2022/10/13 00:23:28;;;;;;;;;;;;;;;16.09;67.47;101540.88;1253564;23;646;-70
2022/10/13 00:24:19;;;;;;;;;;;;;;;16.11;67.37;101532.69;1256197;23;646;-72
2022/10/13 00:25:09;;;;;;;;;;;;;;;16.11;67.43;101522.81;1253438;23;629;-72
2022/10/13 00:25:59;;;;;;;;;;;;;;;16.10;67.67;101534.53;1247363;23;662;-71
2022/10/13 00:26:51;;;;;;;;;;;;;;;16.11;67.13;101532.69;1249029;23;713;-71
2022/10/13 00:27:41;;;;;;;;;;;;;;;16.10;67.65;101526.47;1255233;23;657;-71
2022/10/13 00:28:32;;;;;;;;;;;;;;;16.11;67.41;101522.81;1256036;23;664;-71
2022/10/13 00:29:22;;;;;;;;;;;;;;;16.11;67.15;101528.19;1255565;23;618;-71
2022/10/13 00:30:12;;;;;;;;;;;;;;;16.09;67.61;101523.91;1256114;23;657;-71
2022/10/13 00:31:03;;;;;;;;;;;;;;;16.08;67.36;101522.19;1255296;23;705;-71
2022/10/13 00:31:53;;;;;;;;;;;;;;;16.09;67.16;101524.75;1255985;23;673;-72
2022/10/13 00:32:44;;;;;;;;;;;;;;;16.08;67.75;101516.78;1253402;23;634;-72
2022/10/13 00:33:34;;;;;;;;;;;;;;;16.08;67.49;101525.72;1256086;23;682;-72
2022/10/13 00:34:25;;;;;;;;;;;;;;;16.07;67.57;101526.69;1253832;23;658;-73
2022/10/13 00:35:15;;;;;;;;;;;;;;;16.09;67.69;101527.44;1253586;23;694;-72
2022/10/13 00:36:06;;;;;;;;;;;;;;;16.09;67.53;101523.91;1256088;23;657;-72
2022/10/13 00:36:56;;;;;;;;;;;;;;;16.09;67.19;101519.38;1256058;23;665;-72
2022/10/13 00:37:47;;;;;;;;;;;;;;;16.09;67.34;101519.38;1256045;23;681;-72
2022/10/13 00:38:37;;;;;;;;;;;;;;;16.09;67.52;101518.50;1256105;23;1881;-72
2022/10/13 00:39:27;;;;;;;;;;;;;;;16.08;67.40;101520.34;1256131;23;673;-72
2022/10/13 00:40:18;;;;;;;;;;;;;;;16.08;67.63;101517.66;1253741;23;697;-72
2022/10/13 00:41:08;;;;;;;;;;;;;;;16.06;67.53;101514.22;1256075;23;629;-72
2022/10/13 00:41:59;;;;;;;;;;;;;;;16.08;67.56;101514.09;1256063;23;696;-71
2022/10/13 00:42:49;;;;;;;;;;;;;;;16.07;67.98;101521.31;1256027;23;673;-71
2022/10/13 00:43:39;;;;;;;;;;;;;;;16.07;67.76;101521.31;1255405;23;630;-71
2022/10/13 00:44:30;;;;;;;;;;;;;;;16.07;67.61;101515.94;1253764;23;606;-72
2022/10/13 00:45:20;;;;;;;;;;;;;;;16.08;67.69;101520.34;1256034;23;673;-71
2022/10/13 00:46:11;;;;;;;;;;;;;;;16.09;67.34;101518.50;1256082;23;633;-71
2022/10/13 00:47:01;;;;;;;;;;;;;;;16.08;67.71;101514.09;1256075;23;610;-71
2022/10/13 00:47:51;;;;;;;;;;;;;;;16.08;67.76;101514.97;1255995;23;665;-71
2022/10/13 00:48:42;;;;;;;;;;;;;;;16.07;67.67;101515.94;1255147;23;677;-71
2022/10/13 00:49:32;;;;;;;;;;;;;;;16.07;67.54;101515.94;1256063;23;1040;-71
2022/10/13 00:50:23;;;;;;;;;;;;;;;16.07;67.79;101515.09;1255978;23;689;-72
2022/10/13 00:51:13;;;;;;;;;;;;;;;16.07;67.90;101520.47;1247282;23;653;-72
2022/10/13 00:52:04;;;;;;;;;;;;;;;16.06;67.71;101514.22;1248911;23;650;-71
2022/10/13 00:52:54;;;;;;;;;;;;;;;16.07;67.56;101510.56;1255090;23;630;-71
2022/10/13 00:53:44;;;;;;;;;;;;;;;16.05;67.84;101515.19;1256035;23;621;-71
2022/10/13 00:54:35;;;;;;;;;;;;;;;16.06;67.75;101516.06;1247588;23;635;-71
2022/10/13 00:55:25;;;;;;;;;;;;;;;16.07;67.56;101509.72;1248960;23;638;-72
2022/10/13 00:56:16;;;;;;;;;;;;;;;16.05;67.68;101509.81;1253640;23;627;-71
2022/10/13 00:57:07;;;;;;;;;;;;;;;16.05;67.71;101517.88;1255145;23;674;-71
2022/10/13 00:57:59;;;;;;;;;;;;;;;16.06;67.99;101519.59;1256123;23;611;-71
2022/10/13 00:58:49;;;;;;;;;;;;;;;16.07;67.97;101515.94;1247149;23;1933;-71
2022/10/13 00:59:40;;;;;;;;;;;;;;;16.06;67.68;101519.59;1248999;23;622;-71
2022/10/13 01:00:30;;;;;;;;;;;;;;;16.07;67.64;101515.09;1255039;23;626;-71
2022/10/13 01:01:21;;;;;;;;;;;;;;;16.06;67.63;101516.91;1256061;23;634;-72
2022/10/13 01:02:11;;;;;;;;;;;;;;;16.06;67.85;101522.28;1256094;23;614;-72
2022/10/13 01:03:01;;;;;;;;;;;;;;;16.04;67.81;101513.47;1247253;23;635;-72
2022/10/13 01:03:52;;;;;;;;;;;;;;;16.05;67.84;101514.34;1249082;23;1017;-72
2022/10/13 01:04:42;;;;;;;;;;;;;;;16.03;67.57;101519.84;1254454;23;670;-72
2022/10/13 01:05:33;;;;;;;;;;;;;;;16.04;67.91;101518.00;1256347;23;635;-72
2022/10/13 01:06:23;;;;;;;;;;;;;;;16.04;67.79;101524.25;1256471;23;636;-72
2022/10/13 01:07:14;;;;;;;;;;;;;;;16.06;67.97;101522.28;1256400;23;626;-72
2022/10/13 01:08:04;;;;;;;;;;;;;;;16.05;67.78;101511.66;1256453;23;650;-71
2022/10/13 01:08:55;;;;;;;;;;;;;;;16.04;67.86;101521.56;1256354;23;638;-71
2022/10/13 01:09:46;;;;;;;;;;;;;;;16.03;67.81;101517.16;1256380;23;670;-71
2022/10/13 01:10:38;;;;;;;;;;;;;;;16.04;68.12;101521.56;1255753;23;654;-71
2022/10/13 01:11:30;;;;;;;;;;;;;;;16.05;67.87;101520.56;1255523;23;653;-71
2022/10/13 01:12:20;;;;;;;;;;;;;;;16.04;67.52;101520.69;1255575;23;634;-71
2022/10/13 01:13:11;;;;;;;;;;;;;;;16.02;67.90;101518.13;1256369;23;673;-71
2022/10/13 01:14:01;;;;;;;;;;;;;;;16.02;68.07;101512.75;1255510;23;696;-71
2022/10/13 01:14:51;;;;;;;;;;;;;;;16.01;67.71;101512.84;1256436;23;614;-71
2022/10/13 01:15:42;;;;;;;;;;;;;;;16.00;68.67;101509.31;1256364;23;630;-71
2022/10/13 01:16:32;;;;;;;;;;;;;;;16.02;68.08;101517.25;1256303;23;622;-71
2022/10/13 01:17:23;;;;;;;;;;;;;;;16.00;67.83;101522.75;1256286;23;661;-71
2022/10/13 01:18:13;;;;;;;;;;;;;;;15.98;68.05;101516.63;1256247;23;618;-71
2022/10/13 01:19:04;;;;;;;;;;;;;;;15.96;68.25;101511.38;1256321;23;689;-72
2022/10/13 01:19:54;;;;;;;;;;;;;;;15.98;68.24;101519.31;1256398;23;630;-71
2022/10/13 01:20:44;;;;;;;;;;;;;;;16.00;68.68;101513.84;1256399;23;642;-71
2022/10/13 01:21:35;;;;;;;;;;;;;;;16.02;68.41;101511.88;1256293;23;678;-72
2022/10/13 01:22:25;;;;;;;;;;;;;;;16.01;68.57;101520.91;1256399;23;630;-72
2022/10/13 01:23:16;;;;;;;;;;;;;;;16.01;68.24;101516.41;1256436;23;661;-72
2022/10/13 01:24:06;;;;;;;;;;;;;;;16.01;68.24;101521.78;1255555;23;685;-72
2022/10/13 01:24:57;;;;;;;;;;;;;;;15.99;68.55;101512.97;1256280;23;643;-71
2022/10/13 01:25:47;;;;;;;;;;;;;;;16.01;68.24;101518.22;1256246;23;643;-72
2022/10/13 01:26:37;;;;;;;;;;;;;;;16.02;68.54;101519.94;1256302;23;639;-72
2022/10/13 01:27:28;;;;;;;;;;;;;;;16.02;67.97;101517.25;1255693;23;649;-72
2022/10/13 01:28:18;;;;;;;;;;;;;;;16.00;68.40;101514.69;1256327;23;654;-72
2022/10/13 01:29:09;;;;;;;;;;;;;;;16.02;68.59;101512.75;1256315;23;652;-72
2022/10/13 01:29:59;;;;;;;;;;;;;;;16.02;68.50;101509.19;1255553;23;657;-72
2022/10/13 01:30:49;;;;;;;;;;;;;;;16.00;68.45;101509.31;1256223;23;622;-72
2022/10/13 01:31:40;;;;;;;;;;;;;;;16.02;68.66;101514.56;1256264;23;642;-72
2022/10/13 01:32:30;;;;;;;;;;;;;;;16.00;68.48;101514.69;1256237;23;673;-72
2022/10/13 01:33:21;;;;;;;;;;;;;;;16.01;68.51;101515.53;1256339;23;749;-72
2022/10/13 01:34:11;;;;;;;;;;;;;;;16.00;68.53;101512.00;1256360;23;666;-72
2022/10/13 01:35:01;;;;;;;;;;;;;;;15.99;68.26;101507.59;1256317;23;607;-72
2022/10/13 01:35:52;;;;;;;;;;;;;;;16.01;68.41;101505.66;1256129;23;678;-72
2022/10/13 01:36:42;;;;;;;;;;;;;;;16.03;68.14;101511.78;1256263;23;662;-72
2022/10/13 01:37:33;;;;;;;;;;;;;;;16.01;68.04;101500.28;1256362;23;661;-72
2022/10/13 01:38:23;;;;;;;;;;;;;;;16.01;68.05;101499.41;1256355;23;649;-73
2022/10/13 01:39:14;;;;;;;;;;;;;;;16.00;68.26;101498.56;1256412;23;681;-72
2022/10/13 01:40:04;;;;;;;;;;;;;;;15.99;68.14;101496.84;1247350;23;761;-72
2022/10/13 01:40:55;;;;;;;;;;;;;;;16.01;68.33;101505.66;1249276;23;715;-71
2022/10/13 01:41:45;;;;;;;;;;;;;;;16.00;68.31;101506.63;1252963;23;658;-71
2022/10/13 01:42:35;;;;;;;;;;;;;;;16.01;68.05;101502.09;1256392;23;646;-72
2022/10/13 01:43:26;;;;;;;;;;;;;;;16.00;68.29;101503.94;1256186;23;673;-72
2022/10/13 01:44:16;;;;;;;;;;;;;;;15.99;68.22;101502.22;1256396;23;669;-72
2022/10/13 01:45:07;;;;;;;;;;;;;;;15.99;68.34;101502.22;1256132;23;623;-72
2022/10/13 01:45:57;;;;;;;;;;;;;;;16.00;68.36;101500.38;1256413;23;752;-72
2022/10/13 01:46:47;;;;;;;;;;;;;;;15.95;68.06;101493.53;1253817;23;638;-72
2022/10/13 01:47:38;;;;;;;;;;;;;;;15.97;68.43;101504.16;1256143;23;638;-72
2022/10/13 01:48:28;;;;;;;;;;;;;;;15.96;68.57;101497.94;1256277;23;641;-72
2022/10/13 01:49:19;;;;;;;;;;;;;;;15.97;68.08;101498.78;1256393;23;677;-72
2022/10/13 01:50:09;;;;;;;;;;;;;;;15.99;68.22;101491.47;1256321;23;622;-72
2022/10/13 01:51:00;;;;;;;;;;;;;;;15.97;68.36;101501.47;1256291;23;662;-71
2022/10/13 01:51:50;;;;;;;;;;;;;;;15.95;68.70;101495.34;1247290;23;667;-71
2022/10/13 01:52:40;;;;;;;;;;;;;;;15.87;68.42;101503.16;1249160;23;642;-72
2022/10/13 01:53:31;;;;;;;;;;;;;;;15.91;68.78;101499.28;1255212;23;804;-71
2022/10/13 01:54:21;;;;;;;;;;;;;;;15.92;68.19;101492.94;1256502;23;645;-72
2022/10/13 01:55:12;;;;;;;;;;;;;;;15.95;68.50;101493.53;1256361;23;716;-72
2022/10/13 01:56:02;;;;;;;;;;;;;;;16.01;68.64;101478.75;1256267;23;631;-71
2022/10/13 01:56:53;;;;;;;;;;;;;;;16.03;68.32;101484.88;1255936;23;606;-71
2022/10/13 01:57:43;;;;;;;;;;;;;;;16.02;68.23;101485.00;1256284;23;723;-72
2022/10/13 01:58:33;;;;;;;;;;;;;;;16.03;68.34;101478.66;1256298;23;1931;-71
2022/10/13 01:59:24;;;;;;;;;;;;;;;16.01;68.67;101462.63;1256327;23;975;-72
2022/10/13 02:00:14;;;;;;;;;;;;;;;16.01;68.48;101451.03;1256227;23;622;-71
2022/10/13 02:01:05;;;;;;;;;;;;;;;16.00;68.64;101449.31;1256361;23;634;-72
2022/10/13 02:01:55;;;;;;;;;;;;;;;15.98;68.30;101462.88;1256404;23;628;-71
2022/10/13 02:02:46;;;;;;;;;;;;;;;15.94;68.46;101456.88;1256306;23;618;-72
2022/10/13 02:03:36;;;;;;;;;;;;;;;15.95;68.61;101453.19;1256123;23;680;-71
2022/10/13 02:04:26;;;;;;;;;;;;;;;15.98;68.66;101452.13;1255698;23;666;-72
2022/10/13 02:05:17;;;;;;;;;;;;;;;15.98;68.63;101441.34;1256357;23;635;-71
2022/10/13 02:06:07;;;;;;;;;;;;;;;15.94;68.75;101456.88;1247400;23;643;-72
2022/10/13 02:06:58;;;;;;;;;;;;;;;15.94;68.95;101456.88;1249073;23;709;-71
2022/10/13 02:07:48;;;;;;;;;;;;;;;15.95;68.96;101455.91;1248917;23;662;-72
2022/10/13 02:08:39;;;;;;;;;;;;;;;15.90;68.70;101458.09;1249131;23;625;-72
2022/10/13 02:09:29;;;;;;;;;;;;;;;15.92;68.43;101455.31;1253103;23;646;-72
2022/10/13 02:10:20;;;;;;;;;;;;;;;15.94;68.83;101458.72;1256215;23;635;-71
2022/10/13 02:11:10;;;;;;;;;;;;;;;15.96;68.60;101470.19;1255460;23;693;-71
2022/10/13 02:12:01;;;;;;;;;;;;;;;15.86;69.02;101474.56;1256290;23;665;-71
2022/10/13 02:12:51;;;;;;;;;;;;;;;15.84;69.30;101471.16;1256186;23;709;-71
2022/10/13 02:13:41;;;;;;;;;;;;;;;15.84;69.00;101476.53;1253680;23;643;-71
2022/10/13 02:14:32;;;;;;;;;;;;;;;15.69;68.66;101483.06;1256108;23;630;-71
2022/10/13 02:15:22;;;;;;;;;;;;;;;15.72;69.33;101480.16;1256192;23;697;-71
2022/10/13 02:16:13;;;;;;;;;;;;;;;15.66;69.29;101477.94;1256231;23;701;-71
2022/10/13 02:17:03;;;;;;;;;;;;;;;15.70;68.97;101476.72;1253695;23;803;-71
2022/10/13 02:17:54;;;;;;;;;;;;;;;15.61;69.31;101473.75;1256253;23;674;-70
2022/10/13 02:18:44;;;;;;;;;;;;;;;15.65;69.68;101470.84;1255175;23;1977;-72
2022/10/13 02:19:35;;;;;;;;;;;;;;;15.71;69.47;101475.75;1256222;23;626;-71
2022/10/13 02:20:25;;;;;;;;;;;;;;;15.68;69.10;101478.69;1256176;23;630;-71
2022/10/13 02:21:15;;;;;;;;;;;;;;;15.69;69.52;101475.88;1256200;23;650;-71
2022/10/13 02:22:06;;;;;;;;;;;;;;;15.70;68.79;101484.78;1255971;23;638;-71
2022/10/13 02:22:56;;;;;;;;;;;;;;;15.73;69.38;101481.88;1256259;23;670;-70
2022/10/13 02:23:47;;;;;;;;;;;;;;;15.77;69.21;101475.28;1256238;23;638;-70
2022/10/13 02:24:37;;;;;;;;;;;;;;;15.78;68.81;101476.97;1253645;23;678;-70
2022/10/13 02:25:28;;;;;;;;;;;;;;;15.75;69.29;101480.78;1255793;23;637;-70
2022/10/13 02:26:18;;;;;;;;;;;;;;;15.74;69.32;101480.91;1256132;23;776;-70
2022/10/13 02:27:08;;;;;;;;;;;;;;;15.78;68.95;101479.66;1256214;23;705;-69
2022/10/13 02:27:59;;;;;;;;;;;;;;;15.81;69.08;101484.81;1256096;23;696;-70
2022/10/13 02:28:50;;;;;;;;;;;;;;;15.84;69.24;101484.59;1255398;23;669;-69
2022/10/13 02:29:40;;;;;;;;;;;;;;;15.79;69.24;101478.69;1256114;23;667;-70
2022/10/13 02:30:32;;;;;;;;;;;;;;;15.81;69.08;101474.94;1256196;23;661;-70
2022/10/13 02:31:22;;;;;;;;;;;;;;;15.72;68.94;101477.47;1255525;23;613;-70
2022/10/13 02:32:12;;;;;;;;;;;;;;;15.65;68.87;101473.53;1256274;23;634;-70
2022/10/13 02:33:03;;;;;;;;;;;;;;;15.63;69.86;101477.19;1256125;23;666;-70
2022/10/13 02:33:53;;;;;;;;;;;;;;;15.74;69.73;101475.53;1256276;23;883;-71
2022/10/13 02:34:44;;;;;;;;;;;;;;;15.77;69.78;101476.13;1253621;23;619;-71
2022/10/13 02:35:34;;;;;;;;;;;;;;;15.82;69.45;101467.72;1256106;23;735;-71
2022/10/13 02:36:25;;;;;;;;;;;;;;;15.83;69.27;101469.44;1253765;23;610;-71
2022/10/13 02:37:15;;;;;;;;;;;;;;;15.86;69.35;101462.00;1256174;23;606;-71
2022/10/13 02:38:06;;;;;;;;;;;;;;;15.87;69.18;101455.66;1256261;23;641;-71
2022/10/13 02:38:56;;;;;;;;;;;;;;;15.90;69.18;101454.56;1247590;23;1866;-70
2022/10/13 02:39:47;;;;;;;;;;;;;;;15.88;69.23;101451.13;1248570;23;642;-71
2022/10/13 02:40:37;;;;;;;;;;;;;;;15.91;69.20;101445.53;1255370;23;669;-70
2022/10/13 02:41:27;;;;;;;;;;;;;;;15.89;69.11;101442.94;1256276;23;610;-71
2022/10/13 02:42:18;;;;;;;;;;;;;;;15.91;68.95;101440.16;1256168;23;645;-71
2022/10/13 02:43:08;;;;;;;;;;;;;;;15.90;69.30;101425.84;1256203;23;665;-70
2022/10/13 02:43:59;;;;;;;;;;;;;;;15.88;69.02;101419.72;1256071;23;840;-71
2022/10/13 02:44:49;;;;;;;;;;;;;;;15.90;69.28;101416.94;1256121;23;669;-70
2022/10/13 02:45:39;;;;;;;;;;;;;;;15.91;69.02;101415.97;1256436;23;661;-70
2022/10/13 02:46:30;;;;;;;;;;;;;;;15.91;69.15;101418.66;1256184;23;712;-71
2022/10/13 02:47:20;;;;;;;;;;;;;;;15.91;69.42;101416.81;1256266;23;605;-70
2022/10/13 02:48:11;;;;;;;;;;;;;;;15.91;69.34;101421.34;1247531;23;793;-70
2022/10/13 02:49:01;;;;;;;;;;;;;;;15.90;69.03;101407.03;1248990;23;733;-71
2022/10/13 02:49:52;;;;;;;;;;;;;;;15.90;69.26;101408.88;1255124;23;633;-71
2022/10/13 02:50:42;;;;;;;;;;;;;;;15.89;69.19;101415.22;1256322;23;673;-71
2022/10/13 02:51:33;;;;;;;;;;;;;;;15.89;69.25;101417.91;1256044;23;613;-71
2022/10/13 02:52:23;;;;;;;;;;;;;;;15.89;69.10;101431.34;1256194;23;672;-70
2022/10/13 02:53:13;;;;;;;;;;;;;;;15.89;69.10;101424.13;1256206;23;657;-71
2022/10/13 02:54:04;;;;;;;;;;;;;;;15.91;69.15;101422.19;1256189;23;642;-70
2022/10/13 02:54:54;;;;;;;;;;;;;;;15.90;69.52;101427.69;1256094;23;701;-71
2022/10/13 02:55:45;;;;;;;;;;;;;;;15.90;69.06;101435.75;1256194;23;658;-70
2022/10/13 02:56:35;;;;;;;;;;;;;;;15.89;69.17;101437.56;1256158;23;653;-71
2022/10/13 02:57:25;;;;;;;;;;;;;;;15.88;69.19;101437.69;1256232;23;623;-71
2022/10/13 02:58:16;;;;;;;;;;;;;;;15.89;69.15;101437.56;1256176;23;677;-70
2022/10/13 02:59:06;;;;;;;;;;;;;;;15.88;69.09;101432.31;1253646;23;666;-72
2022/10/13 02:59:57;;;;;;;;;;;;;;;15.87;69.35;101431.47;1256210;23;665;-70
2022/10/13 03:00:47;;;;;;;;;;;;;;;15.87;69.19;101436.84;1255733;23;669;-71
2022/10/13 03:01:40;;;;;;;;;;;;;;;15.88;68.91;101440.38;1256209;23;674;-70
2022/10/13 03:02:31;;;;;;;;;;;;;;;15.87;69.47;101444.03;1255258;23;672;-71
2022/10/13 03:03:21;;;;;;;;;;;;;;;15.88;69.19;101451.13;1255919;23;701;-71
2022/10/13 03:04:11;;;;;;;;;;;;;;;15.88;69.08;101441.25;1256028;23;1170;-71
2022/10/13 03:05:02;;;;;;;;;;;;;;;15.88;69.02;101445.75;1256029;23;666;-71
2022/10/13 03:05:52;;;;;;;;;;;;;;;15.89;68.77;101445.63;1256305;23;625;-71
2022/10/13 03:06:43;;;;;;;;;;;;;;;15.90;69.40;101443.81;1256068;23;619;-70
2022/10/13 03:07:33;;;;;;;;;;;;;;;15.89;69.36;101448.31;1256143;23;653;-71
2022/10/13 03:08:23;;;;;;;;;;;;;;;15.85;68.91;101441.47;1256162;23;718;-70
2022/10/13 03:09:14;;;;;;;;;;;;;;;15.86;69.05;101445.88;1256243;23;638;-71
2022/10/13 03:10:04;;;;;;;;;;;;;;;15.86;68.92;101445.88;1256194;23;653;-70
2022/10/13 03:10:56;;;;;;;;;;;;;;;15.87;69.24;101441.34;1256133;23;714;-70
2022/10/13 03:11:47;;;;;;;;;;;;;;;15.86;69.14;101445.00;1255324;23;626;-70
2022/10/13 03:12:37;;;;;;;;;;;;;;;15.87;69.42;101438.66;1255946;23;622;-70
2022/10/13 03:13:28;;;;;;;;;;;;;;;15.86;69.47;101436.94;1256278;23;630;-70
2022/10/13 03:14:18;;;;;;;;;;;;;;;15.86;69.11;101435.13;1256146;23;681;-70
2022/10/13 03:15:08;;;;;;;;;;;;;;;15.87;69.54;101433.28;1256261;23;658;-70
2022/10/13 03:15:59;;;;;;;;;;;;;;;15.87;69.25;101433.28;1256137;23;631;-70
2022/10/13 03:16:49;;;;;;;;;;;;;;;15.87;69.34;101430.59;1253517;23;636;-70
2022/10/13 03:17:40;;;;;;;;;;;;;;;15.86;69.34;101426.19;1256116;23;630;-70
2022/10/13 03:18:30;;;;;;;;;;;;;;;15.88;69.64;101429.63;1256039;23;685;-69
2022/10/13 03:19:21;;;;;;;;;;;;;;;15.88;69.41;101424.25;1253625;23;663;-71
2022/10/13 03:20:11;;;;;;;;;;;;;;;15.86;69.34;101435.13;1256165;23;931;-71
2022/10/13 03:21:01;;;;;;;;;;;;;;;15.87;69.52;101431.47;1256211;23;646;-70
2022/10/13 03:21:52;;;;;;;;;;;;;;;15.88;68.92;101429.63;1256193;23;642;-70
2022/10/13 03:22:42;;;;;;;;;;;;;;;15.89;68.97;101431.34;1256268;23;644;-70
2022/10/13 03:23:33;;;;;;;;;;;;;;;15.88;69.03;101432.31;1255487;23;708;-70
2022/10/13 03:24:23;;;;;;;;;;;;;;;15.87;68.71;101428.78;1253406;23;663;-71
2022/10/13 03:25:14;;;;;;;;;;;;;;;15.88;68.92;101426.94;1256037;23;670;-70
2022/10/13 03:26:04;;;;;;;;;;;;;;;15.88;69.16;101426.94;1256066;23;610;-70
2022/10/13 03:26:55;;;;;;;;;;;;;;;15.88;69.03;101427.78;1255966;23;891;-70
2022/10/13 03:27:45;;;;;;;;;;;;;;;15.87;68.80;101415.34;1255983;23;645;-71
2022/10/13 03:28:35;;;;;;;;;;;;;;;15.87;68.82;101418.03;1256131;23;629;-70
2022/10/13 03:29:26;;;;;;;;;;;;;;;15.86;69.06;101415.44;1255998;23;764;-71
2022/10/13 03:30:16;;;;;;;;;;;;;;;15.86;68.98;101415.44;1255306;23;681;-71
2022/10/13 03:31:07;;;;;;;;;;;;;;;15.86;68.62;101416.31;1256138;23;594;-71
2022/10/13 03:31:57;;;;;;;;;;;;;;;15.85;68.74;101414.59;1256060;23;650;-71
2022/10/13 03:32:48;;;;;;;;;;;;;;;15.84;69.06;101418.25;1255835;23;630;-71
2022/10/13 03:33:38;;;;;;;;;;;;;;;15.86;68.41;101415.44;1256066;23;642;-71
2022/10/13 03:34:28;;;;;;;;;;;;;;;15.83;68.54;101411.16;1256192;23;642;-71
2022/10/13 03:35:19;;;;;;;;;;;;;;;15.86;68.93;101410.06;1253720;23;644;-71
2022/10/13 03:36:10;;;;;;;;;;;;;;;15.85;68.42;101406.53;1255040;23;610;-71
2022/10/13 03:37:00;;;;;;;;;;;;;;;15.86;68.92;101410.94;1256048;23;610;-71
2022/10/13 03:37:50;;;;;;;;;;;;;;;15.85;68.27;101402.97;1255513;23;689;-71
2022/10/13 03:38:41;;;;;;;;;;;;;;;15.85;68.89;101402.97;1255836;23;1885;-70
2022/10/13 03:39:31;;;;;;;;;;;;;;;15.86;68.64;101393.94;1256266;23;649;-69
2022/10/13 03:40:22;;;;;;;;;;;;;;;15.85;68.50;101392.22;1256097;23;654;-70
2022/10/13 03:41:12;;;;;;;;;;;;;;;15.85;68.40;101390.41;1256258;23;587;-70
2022/10/13 03:42:03;;;;;;;;;;;;;;;15.85;68.50;101394.91;1255978;23;705;-70
2022/10/13 03:42:53;;;;;;;;;;;;;;;15.85;68.40;101402.97;1256191;23;591;-70
2022/10/13 03:43:44;;;;;;;;;;;;;;;15.84;68.17;101399.44;1255993;23;640;-70
2022/10/13 03:44:34;;;;;;;;;;;;;;;15.84;68.27;101398.59;1256023;23;623;-70
2022/10/13 03:45:24;;;;;;;;;;;;;;;15.82;68.44;101396.00;1256224;23;645;-70
2022/10/13 03:46:16;;;;;;;;;;;;;;;15.82;68.27;101392.47;1256128;23;1172;-71
2022/10/13 03:47:06;;;;;;;;;;;;;;;15.83;68.38;101394.19;1255319;23;618;-70
2022/10/13 03:47:57;;;;;;;;;;;;;;;15.83;68.48;101391.50;1256280;23;610;-70
2022/10/13 03:48:47;;;;;;;;;;;;;;;15.82;67.97;101396.00;1255215;23;657;-71
2022/10/13 03:49:38;;;;;;;;;;;;;;;15.83;68.07;101391.50;1256050;23;618;-70
2022/10/13 03:50:28;;;;;;;;;;;;;;;15.81;68.14;101399.69;1255968;23;654;-70
2022/10/13 03:51:19;;;;;;;;;;;;;;;15.83;68.37;101399.56;1256176;23;658;-70
2022/10/13 03:52:09;;;;;;;;;;;;;;;15.83;68.11;101400.41;1255489;23;626;-70
2022/10/13 03:52:59;;;;;;;;;;;;;;;15.82;68.03;101405.91;1256117;23;641;-70
2022/10/13 03:53:50;;;;;;;;;;;;;;;15.82;68.10;101403.22;1256059;23;822;-70
2022/10/13 03:54:41;;;;;;;;;;;;;;;15.83;68.18;101394.19;1255226;23;622;-70
2022/10/13 03:55:31;;;;;;;;;;;;;;;15.81;68.37;101394.31;1256066;23;636;-70
2022/10/13 03:56:22;;;;;;;;;;;;;;;15.82;68.18;101387.09;1255342;23;670;-70
2022/10/13 03:57:12;;;;;;;;;;;;;;;15.82;68.24;101392.47;1256285;23;614;-70
2022/10/13 03:58:03;;;;;;;;;;;;;;;15.81;68.10;101398.81;1256057;23;642;-70
2022/10/13 03:58:54;;;;;;;;;;;;;;;15.80;68.23;101395.28;1253770;23;1950;-70
2022/10/13 03:59:44;;;;;;;;;;;;;;;15.81;68.16;101396.97;1255178;23;626;-70
2022/10/13 04:00:35;;;;;;;;;;;;;;;15.80;68.41;101407.84;1256090;23;638;-70
2022/10/13 04:01:25;;;;;;;;;;;;;;;15.81;68.18;101396.13;1255961;23;684;-70
2022/10/13 04:02:16;;;;;;;;;;;;;;;15.80;68.14;101392.59;1253360;23;651;-70
2022/10/13 04:03:06;;;;;;;;;;;;;;;15.80;68.36;101384.53;1256180;23;670;-70
2022/10/13 04:03:57;;;;;;;;;;;;;;;15.81;68.10;101391.63;1255840;23;1274;-70
2022/10/13 04:04:47;;;;;;;;;;;;;;;15.81;68.21;101396.13;1255437;23;650;-70
2022/10/13 04:05:37;;;;;;;;;;;;;;;15.81;67.71;101396.97;1256124;23;673;-70
2022/10/13 04:06:28;;;;;;;;;;;;;;;15.82;68.16;101393.31;1256108;23;602;-70
2022/10/13 04:07:18;;;;;;;;;;;;;;;15.80;68.61;101402.47;1256046;23;646;-70
2022/10/13 04:08:09;;;;;;;;;;;;;;;15.80;67.86;101402.47;1256009;23;693;-71
2022/10/13 04:08:59;;;;;;;;;;;;;;;15.80;68.22;101406.03;1253888;23;670;-71
2022/10/13 04:09:50;;;;;;;;;;;;;;;15.82;67.99;101405.91;1247279;23;634;-70
2022/10/13 04:10:40;;;;;;;;;;;;;;;15.82;68.15;101400.53;1248930;23;614;-70
2022/10/13 04:11:30;;;;;;;;;;;;;;;15.83;67.89;101399.56;1254289;23;762;-70
2022/10/13 04:12:21;;;;;;;;;;;;;;;15.81;67.89;101399.69;1256152;23;657;-70
2022/10/13 04:13:11;;;;;;;;;;;;;;;15.82;67.79;101393.31;1256172;23;665;-70
2022/10/13 04:14:02;;;;;;;;;;;;;;;15.82;68.04;101390.63;1255868;23;630;-70
2022/10/13 04:14:52;;;;;;;;;;;;;;;15.84;67.81;101388.69;1255194;23;637;-71
2022/10/13 04:15:43;;;;;;;;;;;;;;;15.76;68.04;101382.22;1253545;23;630;-70
2022/10/13 04:16:33;;;;;;;;;;;;;;;15.80;67.81;101380.97;1256190;23;728;-70
2022/10/13 04:17:24;;;;;;;;;;;;;;;15.81;67.89;101385.38;1256051;23;634;-70
2022/10/13 04:18:14;;;;;;;;;;;;;;;15.77;68.33;101375.84;1255288;23;653;-71
2022/10/13 04:19:05;;;;;;;;;;;;;;;15.77;68.29;101375.84;1255925;23;1909;-71
2022/10/13 04:19:55;;;;;;;;;;;;;;;15.80;67.68;101372.91;1255778;23;681;-70
2022/10/13 04:20:46;;;;;;;;;;;;;;;15.80;68.04;101364.84;1256146;23;640;-70
2022/10/13 04:21:36;;;;;;;;;;;;;;;15.85;67.68;101365.34;1255352;23;661;-70
2022/10/13 04:22:26;;;;;;;;;;;;;;;15.85;67.34;101352.78;1256191;23;636;-70
2022/10/13 04:23:17;;;;;;;;;;;;;;;15.86;67.66;101361.69;1256093;23;644;-71
2022/10/13 04:24:07;;;;;;;;;;;;;;;15.87;67.71;101363.41;1255324;23;661;-70
2022/10/13 04:24:58;;;;;;;;;;;;;;;15.87;67.79;101366.09;1256151;23;657;-71
2022/10/13 04:25:48;;;;;;;;;;;;;;;15.87;67.67;101366.94;1255752;23;649;-70
2022/10/13 04:26:39;;;;;;;;;;;;;;;15.87;67.71;101368.78;1256105;23;617;-70